Terminal Aerodrome Forecast
Issued by NWS

Home | Current Version | Previous Version | Text Only | Print | Product List | Glossary On
Versions: 1 2 3 4 5 6 7 8 9 10 11 12 13
000
FTUS43 KDTX 010535
TAFMBS
TAF
KMBS 010535Z 0106/0206 17005KT P6SM OVC100
     FM010900 16004KT P6SM BKN045 OVC080
     FM011300 22006KT P6SM BKN040 OVC100
     FM020000 25010KT P6SM BKN035=

USA.gov is the U.S. government's official web portal to all federal, state and local government web resources and services.